createdAt,value
2022-08-28T00:01:01.699Z,3.00
2022-08-28T00:03:29.050Z,3.33
2022-08-28T00:05:57.915Z,3.20
2022-08-28T00:08:25.149Z,3.50
2022-08-28T00:10:52.638Z,3.05
2022-08-28T00:13:22.598Z,3.42
2022-08-28T00:15:51.597Z,3.75
2022-08-28T00:18:19.503Z,3.08
2022-08-28T00:20:47.360Z,3.13
2022-08-28T00:23:14.901Z,3.17
2022-08-28T00:25:42.177Z,2.95
2022-08-28T00:28:10.791Z,3.53
2022-08-28T00:30:52.304Z,3.22
2022-08-28T00:33:22.522Z,3.20
2022-08-28T00:35:50.000Z,3.63
2022-08-28T00:38:19.945Z,2.75
2022-08-28T00:40:49.710Z,3.40
2022-08-28T00:43:34.967Z,3.25
2022-08-28T00:46:02.974Z,3.20
2022-08-28T00:48:30.199Z,3.22
2022-08-28T00:51:16.743Z,3.15
2022-08-28T00:53:44.572Z,2.80
2022-08-28T00:56:13.336Z,3.05
2022-08-28T00:58:42.854Z,3.30
2022-08-28T01:01:09.966Z,3.08
2022-08-28T01:03:37.965Z,3.17
2022-08-28T01:06:05.875Z,3.20
2022-08-28T01:08:35.790Z,2.80
2022-08-28T01:11:08.764Z,3.45
2022-08-28T01:13:41.940Z,3.10
2022-08-28T01:16:09.507Z,3.13
2022-08-28T01:18:36.699Z,2.88
2022-08-28T01:21:36.735Z,3.50
2022-08-28T01:24:08.041Z,2.97
2022-08-28T01:26:35.747Z,3.35
2022-08-28T01:29:02.876Z,3.22
2022-08-28T01:31:32.126Z,3.00
2022-08-28T01:33:59.447Z,3.08
2022-08-28T01:36:26.603Z,3.03
2022-08-28T01:38:56.600Z,2.45
2022-08-28T01:41:23.782Z,3.15
2022-08-28T01:43:50.880Z,3.30
2022-08-28T01:46:18.125Z,3.00
2022-08-28T01:48:45.415Z,2.88
2022-08-28T01:51:13.493Z,3.40
2022-08-28T01:53:41.850Z,3.10
2022-08-28T01:56:14.551Z,3.17
2022-08-28T01:58:42.081Z,3.17
2022-08-28T02:01:11.053Z,3.00
2022-08-28T02:03:40.648Z,2.95
2022-08-28T02:06:08.065Z,3.33
2022-08-28T02:08:36.666Z,3.55
2022-08-28T02:11:06.452Z,3.40
2022-08-28T02:13:34.999Z,2.90
2022-08-28T02:16:02.648Z,2.83
2022-08-28T02:18:29.823Z,3.33
2022-08-28T02:20:57.327Z,3.10
2022-08-28T02:23:25.820Z,3.15
2022-08-28T02:25:52.885Z,3.00
2022-08-28T02:28:20.008Z,2.58
2022-08-28T02:30:47.108Z,2.90
2022-08-28T02:33:16.076Z,3.05
2022-08-28T02:35:43.413Z,2.80
2022-08-28T02:38:10.854Z,2.78
2022-08-28T02:40:39.557Z,2.83
2022-08-28T02:43:06.977Z,3.20
2022-08-28T02:45:34.484Z,2.85
2022-08-28T02:48:01.973Z,2.65
2022-08-28T02:50:29.985Z,2.25
2022-08-28T02:52:57.345Z,2.42
2022-08-28T02:55:25.107Z,2.55
2022-08-28T02:57:56.958Z,2.22
2022-08-28T03:00:29.028Z,2.45
2022-08-28T03:02:56.278Z,2.38
2022-08-28T03:05:25.489Z,2.60
2022-08-28T03:07:58.942Z,2.47
2022-08-28T03:10:29.240Z,2.72
2022-08-28T03:12:59.301Z,2.47
2022-08-28T03:15:28.627Z,2.30
2022-08-28T03:17:59.098Z,2.40
2022-08-28T03:20:26.390Z,2.53
2022-08-28T03:23:12.097Z,2.88
2022-08-28T03:25:42.360Z,2.72
2022-08-28T03:28:09.953Z,2.60
2022-08-28T03:30:37.477Z,2.20
2022-08-28T03:33:04.665Z,2.85
2022-08-28T03:35:32.422Z,2.13
2022-08-28T03:37:59.877Z,2.33
2022-08-28T03:40:27.374Z,2.55
2022-08-28T03:42:55.816Z,2.42
2022-08-28T03:45:29.247Z,2.60
2022-08-28T03:50:23.946Z,2.20
2022-08-28T03:52:52.023Z,2.28
2022-08-28T03:55:22.774Z,2.28
2022-08-28T03:57:51.478Z,2.58
2022-08-28T04:00:19.315Z,2.40
2022-08-28T04:02:46.413Z,2.15
2022-08-28T04:05:14.035Z,2.40
2022-08-28T04:07:41.281Z,2.80
2022-08-28T04:10:08.955Z,2.35
2022-08-28T04:12:37.001Z,2.70
2022-08-28T04:15:06.792Z,2.40
2022-08-28T04:17:34.356Z,2.38
2022-08-28T04:20:02.326Z,1.90
2022-08-28T04:22:30.317Z,2.05
2022-08-28T04:24:57.366Z,1.92
2022-08-28T04:27:24.404Z,2.35
2022-08-28T04:29:51.566Z,2.08
2022-08-28T04:32:18.639Z,1.88
2022-08-28T04:34:45.885Z,2.22
2022-08-28T04:37:13.152Z,1.67
2022-08-28T04:39:42.730Z,1.70
2022-08-28T04:42:10.150Z,2.45
2022-08-28T04:44:37.518Z,2.20
2022-08-28T04:47:05.032Z,1.85
2022-08-28T04:49:33.566Z,2.10
2022-08-28T04:52:00.639Z,1.92
2022-08-28T04:54:27.788Z,1.90
2022-08-28T04:56:57.878Z,2.15
2022-08-28T04:59:27.207Z,2.10
2022-08-28T05:01:54.505Z,2.30
2022-08-28T05:04:22.185Z,1.90
2022-08-28T05:06:49.317Z,2.05
2022-08-28T05:09:23.081Z,2.42
2022-08-28T05:11:51.152Z,2.33
2022-08-28T05:14:23.314Z,2.30
2022-08-28T05:16:53.019Z,2.10
2022-08-28T05:19:21.302Z,2.05
2022-08-28T05:21:48.732Z,2.45
2022-08-28T05:24:15.816Z,2.22
2022-08-28T05:26:43.266Z,2.45
2022-08-28T05:29:11.130Z,2.25
2022-08-28T05:31:41.944Z,2.42
2022-08-28T05:34:10.358Z,2.30
2022-08-28T05:36:40.290Z,2.00
2022-08-28T05:39:09.236Z,2.22
2022-08-28T05:41:37.228Z,2.17
2022-08-28T05:44:06.394Z,1.92
2022-08-28T05:46:33.539Z,1.88
2022-08-28T05:49:00.917Z,2.28
2022-08-28T05:51:28.486Z,2.22
2022-08-28T05:53:59.288Z,1.98
2022-08-28T05:56:29.666Z,2.60
2022-08-28T05:58:59.844Z,2.17
2022-08-28T06:01:31.747Z,2.20
2022-08-28T06:04:00.491Z,2.30
2022-08-28T06:06:29.363Z,2.45
2022-08-28T06:08:58.960Z,2.60
2022-08-28T06:11:27.916Z,2.67
2022-08-28T06:13:58.601Z,2.50
2022-08-28T06:16:25.792Z,2.50
2022-08-28T06:18:53.056Z,2.28
2022-08-28T06:21:20.670Z,2.55
2022-08-28T06:23:47.750Z,2.38
2022-08-28T06:26:14.849Z,2.17
2022-08-28T06:28:41.905Z,2.83
2022-08-28T06:31:24.646Z,2.83
2022-08-28T06:33:56.012Z,2.50
2022-08-28T06:36:24.109Z,2.42
2022-08-28T06:38:51.455Z,2.17
2022-08-28T06:41:19.333Z,2.25
2022-08-28T06:43:46.431Z,2.13
2022-08-28T06:46:13.975Z,2.28
2022-08-28T06:48:41.204Z,2.17
2022-08-28T06:51:09.475Z,2.50
2022-08-28T06:53:37.561Z,2.15
2022-08-28T06:56:26.404Z,2.03
2022-08-28T06:58:58.507Z,2.13
2022-08-28T07:01:29.196Z,1.90
2022-08-28T07:04:01.661Z,1.90
2022-08-28T07:06:31.259Z,1.92
2022-08-28T07:08:58.428Z,1.80
2022-08-28T07:11:27.863Z,1.95
2022-08-28T07:13:55.455Z,2.05
2022-08-28T07:16:25.594Z,1.80
2022-08-28T07:18:52.851Z,1.77
2022-08-28T07:21:22.655Z,1.63
2022-08-28T07:23:50.241Z,1.67
2022-08-28T07:26:19.541Z,1.40
2022-08-28T07:28:47.439Z,1.80
2022-08-28T07:31:16.544Z,1.77
2022-08-28T07:33:44.229Z,1.70
2022-08-28T07:36:28.842Z,2.00
2022-08-28T07:39:00.415Z,1.63
2022-08-28T07:41:29.164Z,1.20
2022-08-28T07:44:15.506Z,1.70
2022-08-28T07:46:42.569Z,1.65
2022-08-28T07:49:10.133Z,1.40
2022-08-28T07:51:37.595Z,1.70
2022-08-28T07:54:05.187Z,1.70
2022-08-28T07:56:33.087Z,1.48
2022-08-28T07:59:01.131Z,1.80
2022-08-28T08:01:30.646Z,1.70
2022-08-28T08:04:01.375Z,1.60
2022-08-28T08:06:33.235Z,1.70
2022-08-28T08:09:01.686Z,1.70
2022-08-28T08:11:32.286Z,1.73
2022-08-28T08:14:04.684Z,1.65
2022-08-28T08:16:40.507Z,1.40
2022-08-28T08:19:14.043Z,1.10
2022-08-28T08:21:42.337Z,1.38
2022-08-28T08:24:19.985Z,1.50
2022-08-28T08:26:50.875Z,1.38
2022-08-28T08:29:28.130Z,1.75
2022-08-28T08:31:58.695Z,1.38
2022-08-28T08:34:28.291Z,1.90
2022-08-28T08:36:58.273Z,1.77
2022-08-28T08:39:25.442Z,1.65
2022-08-28T08:41:57.343Z,1.90
2022-08-28T08:44:33.793Z,1.42
2022-08-28T08:47:21.170Z,1.70
2022-08-28T08:49:50.782Z,1.40
2022-08-28T08:52:26.996Z,1.55
2022-08-28T08:55:16.327Z,1.50
2022-08-28T08:57:46.116Z,1.23
2022-08-28T09:00:17.016Z,1.35
2022-08-28T09:02:48.046Z,1.40
2022-08-28T09:05:22.777Z,1.17
2022-08-28T09:07:56.421Z,1.00
2022-08-28T09:10:26.504Z,1.65
2022-08-28T09:13:06.708Z,1.33
2022-08-28T09:15:35.759Z,1.33
2022-08-28T09:18:19.097Z,1.60
2022-08-28T09:23:13.975Z,1.25
2022-08-28T09:25:47.889Z,1.42
2022-08-28T09:28:32.221Z,1.50
2022-08-28T09:31:02.352Z,1.50
2022-08-28T09:33:43.314Z,1.77
2022-08-28T09:36:31.433Z,1.58
2022-08-28T09:39:17.590Z,1.30
2022-08-28T09:42:18.659Z,1.30
2022-08-28T09:44:56.189Z,1.48
2022-08-28T09:47:46.861Z,1.60
2022-08-28T09:50:22.130Z,1.38
2022-08-28T09:52:50.070Z,1.20
2022-08-28T09:55:43.253Z,1.23
2022-08-28T09:58:10.440Z,1.30
2022-08-28T10:00:43.041Z,1.38
2022-08-28T10:03:17.155Z,1.75
2022-08-28T10:06:03.162Z,1.48
2022-08-28T10:08:33.131Z,1.40
2022-08-28T10:11:04.402Z,1.40
2022-08-28T10:13:34.221Z,1.52
2022-08-28T10:16:01.438Z,1.27
2022-08-28T10:18:41.029Z,1.52
2022-08-28T10:21:18.972Z,1.60
2022-08-28T10:23:46.147Z,1.15
2022-08-28T10:26:19.683Z,1.35
2022-08-28T10:28:54.004Z,1.40
2022-08-28T10:31:31.506Z,1.88
2022-08-28T10:34:11.178Z,1.60
2022-08-28T10:36:41.038Z,1.30
2022-08-28T10:39:14.520Z,1.30
2022-08-28T10:42:02.159Z,1.40
2022-08-28T10:44:59.023Z,1.55
2022-08-28T10:47:29.094Z,1.35
2022-08-28T10:50:02.052Z,1.35
2022-08-28T10:55:09.240Z,1.10
2022-08-28T10:57:45.109Z,1.30
2022-08-28T11:00:15.020Z,1.20
2022-08-28T11:02:45.266Z,1.20
2022-08-28T11:05:13.185Z,1.30
2022-08-28T11:07:46.552Z,1.40
2022-08-28T11:10:32.452Z,1.30
2022-08-28T11:13:00.386Z,1.27
2022-08-28T11:15:34.248Z,1.45
2022-08-28T11:18:27.609Z,1.50
2022-08-28T11:21:01.365Z,1.35
2022-08-28T11:23:39.178Z,1.20
2022-08-28T11:26:10.132Z,1.40
2022-08-28T11:28:40.524Z,1.27
2022-08-28T11:31:08.015Z,1.20
2022-08-28T11:33:35.472Z,1.30
2022-08-28T11:36:03.157Z,1.13
2022-08-28T11:38:42.522Z,1.30
2022-08-28T11:41:14.659Z,1.30
2022-08-28T11:43:46.271Z,1.20
2022-08-28T11:46:33.094Z,1.25
2022-08-28T11:49:01.646Z,1.30
2022-08-28T11:51:37.402Z,1.20
2022-08-28T11:54:04.459Z,1.30
2022-08-28T11:56:44.038Z,1.50
2022-08-28T11:59:11.521Z,1.23
2022-08-28T12:01:39.718Z,1.17
2022-08-28T12:04:09.207Z,1.58
2022-08-28T12:06:46.928Z,1.27
2022-08-28T12:09:34.159Z,1.25
2022-08-28T12:12:03.114Z,1.23
2022-08-28T12:14:30.265Z,1.42
2022-08-28T12:16:57.348Z,1.30
2022-08-28T12:19:34.766Z,1.15
2022-08-28T12:22:12.383Z,1.30
2022-08-28T12:24:57.178Z,1.20
2022-08-28T12:27:26.541Z,1.30
2022-08-28T12:29:57.296Z,1.30
2022-08-28T12:32:41.530Z,1.55
2022-08-28T12:35:18.134Z,1.10
2022-08-28T12:37:54.476Z,1.30
2022-08-28T12:40:34.210Z,1.20
2022-08-28T12:43:04.174Z,1.27
2022-08-28T12:45:40.465Z,1.30
2022-08-28T12:48:33.926Z,1.13
2022-08-28T12:51:05.525Z,1.13
2022-08-28T12:53:38.923Z,1.20
2022-08-28T12:56:06.144Z,1.40
2022-08-28T12:58:34.962Z,1.40
2022-08-28T13:01:05.298Z,1.38
2022-08-28T13:03:33.336Z,1.23
2022-08-28T13:06:06.220Z,1.08
2022-08-28T13:08:34.947Z,1.20
2022-08-28T13:11:02.558Z,1.23
2022-08-28T13:13:44.290Z,1.13
2022-08-28T13:16:12.986Z,1.10
2022-08-28T13:18:40.096Z,1.15
2022-08-28T13:21:30.829Z,1.13
2022-08-28T13:24:02.563Z,1.38
2022-08-28T13:26:37.835Z,1.05
2022-08-28T13:29:16.621Z,0.90
2022-08-28T13:31:45.274Z,1.30
2022-08-28T13:34:22.169Z,0.77
2022-08-28T13:36:52.445Z,1.33
2022-08-28T13:39:22.549Z,1.33
2022-08-28T13:41:51.929Z,1.10
2022-08-28T13:44:22.367Z,1.42
2022-08-28T13:46:49.412Z,1.15
2022-08-28T13:49:17.262Z,1.50
2022-08-28T13:51:44.441Z,1.30
2022-08-28T13:54:11.529Z,1.40
2022-08-28T13:56:43.477Z,1.30
2022-08-28T13:59:11.308Z,1.50
2022-08-28T14:01:58.123Z,1.40
2022-08-28T14:04:25.653Z,1.50
2022-08-28T14:06:53.673Z,1.10
2022-08-28T14:09:21.588Z,1.35
2022-08-28T14:11:50.425Z,1.30
2022-08-28T14:14:17.967Z,1.45
2022-08-28T14:16:45.889Z,1.45
2022-08-28T14:19:13.346Z,1.42
2022-08-28T14:21:43.704Z,1.38
2022-08-28T14:24:11.118Z,1.50
2022-08-28T14:26:40.591Z,1.73
2022-08-28T14:29:09.309Z,1.35
2022-08-28T14:31:37.237Z,1.20
2022-08-28T14:34:05.445Z,1.10
2022-08-28T14:36:33.969Z,1.40
2022-08-28T14:39:05.912Z,1.63
2022-08-28T14:41:34.397Z,1.50
2022-08-28T14:44:01.922Z,1.40
2022-08-28T14:46:31.331Z,1.25
2022-08-28T14:48:59.801Z,1.45
2022-08-28T14:51:31.250Z,1.20
2022-08-28T14:53:59.984Z,1.15
2022-08-28T14:56:27.363Z,1.55
2022-08-28T14:58:59.062Z,1.55
2022-08-28T15:01:40.539Z,1.10
2022-08-28T15:04:09.848Z,1.42
2022-08-28T15:06:39.981Z,1.27
2022-08-28T15:09:07.138Z,1.25
2022-08-28T15:11:35.872Z,1.50
2022-08-28T15:14:03.551Z,1.60
2022-08-28T15:16:35.863Z,1.40
2022-08-28T15:19:04.237Z,1.80
2022-08-28T15:21:33.684Z,0.95
2022-08-28T15:24:01.708Z,1.40
2022-08-28T15:26:30.384Z,1.52
2022-08-28T15:29:02.196Z,1.35
2022-08-28T15:31:41.350Z,0.90
2022-08-28T15:34:22.357Z,1.42
2022-08-28T15:36:54.657Z,1.35
2022-08-28T15:39:42.455Z,1.20
2022-08-28T15:42:10.288Z,1.38
2022-08-28T15:44:37.969Z,1.50
2022-08-28T15:47:06.083Z,2.38
2022-08-28T15:49:38.817Z,1.60
2022-08-28T15:52:16.845Z,1.05
2022-08-28T15:54:43.969Z,1.20
2022-08-28T15:57:11.219Z,1.27
2022-08-28T15:59:48.769Z,1.40
2022-08-28T16:02:22.815Z,1.48
2022-08-28T16:04:50.400Z,1.23
2022-08-28T16:07:18.443Z,1.35
2022-08-28T16:09:46.763Z,1.30
2022-08-28T16:12:13.886Z,1.20
2022-08-28T16:14:41.352Z,1.60
2022-08-28T16:17:16.973Z,1.75
2022-08-28T16:19:44.597Z,2.20
2022-08-28T16:22:15.984Z,1.45
2022-08-28T16:24:43.333Z,1.10
2022-08-28T16:27:14.610Z,1.25
2022-08-28T16:29:42.819Z,1.20
2022-08-28T16:32:10.009Z,1.63
2022-08-28T16:34:39.887Z,1.20
2022-08-28T16:37:08.024Z,1.30
2022-08-28T16:39:36.085Z,1.60
2022-08-28T16:42:03.419Z,1.27
2022-08-28T16:44:30.971Z,1.42
2022-08-28T16:46:58.165Z,1.33
2022-08-28T16:49:25.590Z,1.30
2022-08-28T16:51:52.735Z,1.60
2022-08-28T16:54:21.700Z,1.15
2022-08-28T16:56:50.914Z,1.40
2022-08-28T16:59:23.504Z,1.15
2022-08-28T17:01:53.050Z,1.50
2022-08-28T17:04:22.328Z,1.30
2022-08-28T17:06:49.556Z,1.30
2022-08-28T17:09:16.879Z,1.35
2022-08-28T17:11:51.799Z,1.67
2022-08-28T17:14:20.446Z,1.40
2022-08-28T17:16:47.902Z,1.30
2022-08-28T17:19:15.686Z,1.50
2022-08-28T17:22:02.147Z,1.35
2022-08-28T17:24:30.904Z,1.52
2022-08-28T17:27:00.891Z,1.33
2022-08-28T17:29:30.619Z,1.40
2022-08-28T17:31:57.911Z,1.40
2022-08-28T17:34:30.233Z,1.10
2022-08-28T17:36:57.719Z,1.25
2022-08-28T17:39:27.268Z,1.25
2022-08-28T17:41:54.349Z,1.30
2022-08-28T17:44:23.890Z,1.30
2022-08-28T17:46:53.961Z,1.23
2022-08-28T17:49:22.365Z,1.30
2022-08-28T17:51:50.242Z,1.30
2022-08-28T17:54:18.722Z,1.20
2022-08-28T17:56:46.264Z,1.20
2022-08-28T17:59:13.709Z,1.30
2022-08-28T18:01:42.104Z,1.30
2022-08-28T18:04:09.607Z,1.40
2022-08-28T18:06:37.544Z,1.15
2022-08-28T18:09:05.516Z,1.10
2022-08-28T18:11:32.778Z,1.40
2022-08-28T18:14:00.844Z,1.30
2022-08-28T18:16:31.378Z,1.13
2022-08-28T18:18:59.037Z,1.27
2022-08-28T18:21:29.370Z,1.50
2022-08-28T18:23:57.326Z,1.13
2022-08-28T18:26:24.578Z,1.30
2022-08-28T18:28:52.342Z,1.60
2022-08-28T18:31:20.037Z,1.10
2022-08-28T18:33:47.372Z,1.40
2022-08-28T18:36:15.381Z,1.50
2022-08-28T18:38:43.220Z,1.70
2022-08-28T18:41:10.766Z,1.45
2022-08-28T18:43:37.818Z,1.48
2022-08-28T18:46:05.586Z,1.55
2022-08-28T18:48:33.363Z,1.70
2022-08-28T18:51:00.594Z,1.50
2022-08-28T18:53:28.794Z,1.50
2022-08-28T18:56:00.283Z,1.80
2022-08-28T18:58:29.860Z,1.45
2022-08-28T19:00:57.630Z,1.50
2022-08-28T19:03:24.883Z,1.50
2022-08-28T19:05:52.075Z,1.70
2022-08-28T19:08:19.673Z,1.80
2022-08-28T19:10:46.868Z,1.67
2022-08-28T19:13:14.036Z,1.40
2022-08-28T19:15:41.863Z,1.80
2022-08-28T19:18:09.234Z,2.08
2022-08-28T19:20:36.733Z,2.13
2022-08-28T19:23:03.943Z,1.70
2022-08-28T19:25:31.545Z,1.70
2022-08-28T19:27:59.821Z,1.52
2022-08-28T19:30:32.802Z,1.50
2022-08-28T19:33:00.990Z,1.67
2022-08-28T19:35:28.754Z,1.85
2022-08-28T19:37:55.940Z,1.55
2022-08-28T19:40:23.726Z,1.55
2022-08-28T19:42:51.350Z,1.50
2022-08-28T19:45:18.883Z,1.60
2022-08-28T19:47:47.032Z,1.50
2022-08-28T19:50:14.726Z,1.50
2022-08-28T19:52:43.204Z,1.50
2022-08-28T19:55:13.739Z,1.45
2022-08-28T19:57:40.806Z,1.77
2022-08-28T20:00:08.570Z,1.70
2022-08-28T20:02:36.848Z,1.77
2022-08-28T20:05:05.664Z,1.45
2022-08-28T20:07:32.773Z,1.67
2022-08-28T20:09:59.908Z,1.58
2022-08-28T20:12:27.428Z,1.40
2022-08-28T20:14:54.537Z,1.52
2022-08-28T20:17:21.752Z,1.65
2022-08-28T20:19:49.142Z,1.80
2022-08-28T20:22:17.505Z,1.50
2022-08-28T20:24:45.174Z,1.70
2022-08-28T20:27:12.935Z,1.83
2022-08-28T20:29:42.768Z,1.90
2022-08-28T20:32:09.808Z,1.58
2022-08-28T20:34:41.409Z,1.95
2022-08-28T20:37:11.462Z,1.67
2022-08-28T20:39:41.452Z,1.80
2022-08-28T20:42:09.774Z,1.75
2022-08-28T20:44:37.120Z,1.60
2022-08-28T20:47:04.688Z,1.40
2022-08-28T20:49:31.762Z,1.60
2022-08-28T20:52:01.304Z,1.77
2022-08-28T20:54:38.723Z,1.67
2022-08-28T20:57:07.581Z,1.60
2022-08-28T20:59:39.975Z,1.92
2022-08-28T21:02:12.454Z,1.80
2022-08-28T21:04:42.612Z,1.98
2022-08-28T21:07:10.576Z,2.08
2022-08-28T21:09:53.739Z,1.77
2022-08-28T21:12:26.850Z,1.75
2022-08-28T21:14:54.071Z,1.80
2022-08-28T21:17:28.936Z,1.98
2022-08-28T21:20:00.627Z,1.95
2022-08-28T21:22:27.755Z,2.35
2022-08-28T21:24:57.094Z,1.90
2022-08-28T21:27:27.180Z,2.00
2022-08-28T21:29:58.500Z,1.67
2022-08-28T21:32:28.550Z,1.70
2022-08-28T21:34:56.036Z,2.05
2022-08-28T21:37:23.919Z,2.08
2022-08-28T21:39:56.239Z,1.75
2022-08-28T21:42:23.822Z,2.00
2022-08-28T21:44:51.978Z,1.60
2022-08-28T21:47:24.065Z,2.00
2022-08-28T21:49:52.522Z,1.80
2022-08-28T21:52:22.982Z,1.80
2022-08-28T21:54:50.511Z,1.75
2022-08-28T21:57:17.712Z,2.10
2022-08-28T21:59:45.419Z,1.70
2022-08-28T22:02:12.658Z,1.77
2022-08-28T22:04:39.739Z,1.77
2022-08-28T22:07:06.922Z,1.80
2022-08-28T22:09:33.960Z,2.10
2022-08-28T22:12:01.511Z,1.80
2022-08-28T22:14:28.644Z,1.90
2022-08-28T22:16:58.751Z,1.85
2022-08-28T22:19:28.571Z,2.10
2022-08-28T22:22:14.714Z,2.05
2022-08-28T22:24:41.858Z,1.85
2022-08-28T22:27:10.984Z,1.70
2022-08-28T22:29:39.622Z,2.15
2022-08-28T22:32:08.161Z,1.95
2022-08-28T22:34:42.746Z,1.95
2022-08-28T22:37:11.503Z,2.05
2022-08-28T22:39:42.047Z,2.05
2022-08-28T22:42:09.849Z,2.30
2022-08-28T22:44:37.835Z,1.80
2022-08-28T22:47:05.933Z,1.73
2022-08-28T22:49:33.279Z,2.10
2022-08-28T22:52:00.640Z,1.88
2022-08-28T22:54:27.765Z,1.80
2022-08-28T22:56:56.789Z,2.25
2022-08-28T22:59:23.842Z,2.17
2022-08-28T23:01:50.890Z,2.22
2022-08-28T23:04:18.359Z,2.10
2022-08-28T23:06:45.814Z,2.33
2022-08-28T23:09:13.032Z,2.13
2022-08-28T23:11:42.958Z,1.95
2022-08-28T23:14:10.102Z,2.10
2022-08-28T23:16:37.598Z,2.20
2022-08-28T23:19:09.207Z,2.30
2022-08-28T23:21:40.220Z,2.13
2022-08-28T23:24:10.674Z,2.20
2022-08-28T23:26:37.801Z,2.00
2022-08-28T23:29:05.534Z,1.83
2022-08-28T23:31:32.722Z,2.13
2022-08-28T23:34:00.131Z,2.33
2022-08-28T23:36:30.427Z,2.20
2022-08-28T23:38:57.639Z,1.73
2022-08-28T23:41:26.875Z,1.92
2022-08-28T23:43:54.440Z,2.20
2022-08-28T23:46:24.726Z,2.35
2022-08-28T23:48:51.779Z,2.30
2022-08-28T23:51:19.574Z,2.30
2022-08-28T23:53:47.663Z,2.10
2022-08-28T23:56:14.859Z,1.90
2022-08-28T23:58:43.192Z,1.98
